sensor_id;sensor_type;location;lat;lon;timestamp;pressure;altitude;pressure_sealevel;temperature;humidity
39443;BME280;25147;52.142;9.960;2023-04-08T00:00:16;101059.09;;;3.89;95.94
39443;BME280;25147;52.142;9.960;2023-04-08T00:02:43;101032.75;;;3.69;96.01
39443;BME280;25147;52.142;9.960;2023-04-08T00:05:10;101261.59;;;4.87;96.26
39443;BME280;25147;52.142;9.960;2023-04-08T00:07:51;101243.44;;;4.87;96.47
39443;BME280;25147;52.142;9.960;2023-04-08T00:10:18;100942.38;;;3.01;96.37
39443;BME280;25147;52.142;9.960;2023-04-08T00:12:50;101168.28;;;4.47;96.77
39443;BME280;25147;52.142;9.960;2023-04-08T00:15:19;101221.78;;;4.86;97.02
39443;BME280;25147;52.142;9.960;2023-04-08T00:17:49;101208.66;;;4.77;97.02
39443;BME280;25147;52.142;9.960;2023-04-08T00:20:19;101250.31;;;4.85;97.07
39443;BME280;25147;52.142;9.960;2023-04-08T00:22:46;101058.97;;;3.83;96.91
39443;BME280;25147;52.142;9.960;2023-04-08T00:25:13;101247.59;;;4.78;97.00
39443;BME280;25147;52.142;9.960;2023-04-08T00:27:40;101146.41;;;4.34;96.71
39443;BME280;25147;52.142;9.960;2023-04-08T00:30:07;101235.53;;;4.82;96.83
39443;BME280;25147;52.142;9.960;2023-04-08T00:32:36;101047.44;;;3.69;96.77
39443;BME280;25147;52.142;9.960;2023-04-08T00:35:03;100894.63;;;2.85;96.85
39443;BME280;25147;52.142;9.960;2023-04-08T00:37:30;101001.25;;;3.49;97.17
39443;BME280;25147;52.142;9.960;2023-04-08T00:39:57;101235.50;;;4.79;97.41
39443;BME280;25147;52.142;9.960;2023-04-08T00:42:24;100833.38;;;2.46;97.61
39443;BME280;25147;52.142;9.960;2023-04-08T00:44:51;101242.44;;;4.80;98.41
39443;BME280;25147;52.142;9.960;2023-04-08T00:47:18;101029.19;;;3.63;98.49
39443;BME280;25147;52.142;9.960;2023-04-08T00:49:47;101025.50;;;3.53;99.17
39443;BME280;25147;52.142;9.960;2023-04-08T00:52:14;101137.53;;;4.23;99.83
39443;BME280;25147;52.142;9.960;2023-04-08T00:54:41;101065.78;;;3.79;99.94
39443;BME280;25147;52.142;9.960;2023-04-08T00:57:08;101177.44;;;4.31;100.00
39443;BME280;25147;52.142;9.960;2023-04-08T00:59:35;101240.34;;;4.63;100.00
39443;BME280;25147;52.142;9.960;2023-04-08T01:02:10;101236.84;;;4.61;100.00
39443;BME280;25147;52.142;9.960;2023-04-08T01:04:49;101229.84;;;4.57;100.00
39443;BME280;25147;52.142;9.960;2023-04-08T01:07:22;101053.13;;;3.52;100.00
39443;BME280;25147;52.142;9.960;2023-04-08T01:09:52;101238.38;;;4.52;100.00
39443;BME280;25147;52.142;9.960;2023-04-08T01:12:22;101238.34;;;4.50;100.00
39443;BME280;25147;52.142;9.960;2023-04-08T01:14:54;101234.91;;;4.51;100.00
39443;BME280;25147;52.142;9.960;2023-04-08T01:17:23;101270.38;;;4.52;100.00
39443;BME280;25147;52.142;9.960;2023-04-08T01:19:50;101288.53;;;4.54;100.00
39443;BME280;25147;52.142;9.960;2023-04-08T01:22:26;100804.72;;;1.99;100.00
39443;BME280;25147;52.142;9.960;2023-04-08T01:25:00;101038.06;;;3.36;100.00
39443;BME280;25147;52.142;9.960;2023-04-08T01:27:30;101247.03;;;4.52;100.00
39443;BME280;25147;52.142;9.960;2023-04-08T01:30:00;101194.63;;;4.26;100.00
39443;BME280;25147;52.142;9.960;2023-04-08T01:32:27;101191.16;;;4.26;100.00
39443;BME280;25147;52.142;9.960;2023-04-08T01:34:55;101229.66;;;4.48;100.00
39443;BME280;25147;52.142;9.960;2023-04-08T01:37:24;101209.59;;;4.39;100.00
39443;BME280;25147;52.142;9.960;2023-04-08T01:39:51;101143.91;;;3.98;100.00
39443;BME280;25147;52.142;9.960;2023-04-08T01:42:19;100957.56;;;2.86;100.00
39443;BME280;25147;52.142;9.960;2023-04-08T01:44:49;101135.06;;;3.90;100.00
39443;BME280;25147;52.142;9.960;2023-04-08T01:47:18;101217.44;;;4.42;100.00
39443;BME280;25147;52.142;9.960;2023-04-08T01:49:45;101244.22;;;4.43;100.00
39443;BME280;25147;52.142;9.960;2023-04-08T01:52:13;101217.41;;;4.41;100.00
39443;BME280;25147;52.142;9.960;2023-04-08T01:54:42;101245.97;;;4.42;100.00
39443;BME280;25147;52.142;9.960;2023-04-08T01:57:11;101220.03;;;4.42;100.00
39443;BME280;25147;52.142;9.960;2023-04-08T01:59:41;101241.66;;;4.43;100.00
39443;BME280;25147;52.142;9.960;2023-04-08T02:02:11;101220.06;;;4.44;100.00
39443;BME280;25147;52.142;9.960;2023-04-08T02:04:38;101263.28;;;4.45;100.00
39443;BME280;25147;52.142;9.960;2023-04-08T02:07:06;101223.53;;;4.45;100.00
39443;BME280;25147;52.142;9.960;2023-04-08T02:09:34;100947.50;;;2.61;100.00
39443;BME280;25147;52.142;9.960;2023-04-08T02:12:01;101086.44;;;3.38;100.00
39443;BME280;25147;52.142;9.960;2023-04-08T02:14:28;101253.84;;;4.47;100.00
39443;BME280;25147;52.142;9.960;2023-04-08T02:17:02;101090.34;;;3.59;100.00
39443;BME280;25147;52.142;9.960;2023-04-08T02:19:35;101233.94;;;4.46;100.00
39443;BME280;25147;52.142;9.960;2023-04-08T02:22:09;101139.38;;;3.89;100.00
39443;BME280;25147;52.142;9.960;2023-04-08T02:24:37;101245.09;;;4.42;100.00
39443;BME280;25147;52.142;9.960;2023-04-08T02:27:07;101100.44;;;3.47;100.00
39443;BME280;25147;52.142;9.960;2023-04-08T02:29:39;100913.78;;;2.57;100.00
39443;BME280;25147;52.142;9.960;2023-04-08T02:32:09;101197.03;;;4.18;100.00
39443;BME280;25147;52.142;9.960;2023-04-08T02:34:38;101239.81;;;4.39;100.00
39443;BME280;25147;52.142;9.960;2023-04-08T02:37:06;101140.06;;;3.82;100.00
39443;BME280;25147;52.142;9.960;2023-04-08T02:39:33;101230.31;;;4.38;100.00
39443;BME280;25147;52.142;9.960;2023-04-08T02:42:00;101227.72;;;4.39;100.00
39443;BME280;25147;52.142;9.960;2023-04-08T02:44:27;101186.63;;;4.17;100.00
39443;BME280;25147;52.142;9.960;2023-04-08T02:46:54;101230.31;;;4.39;100.00
39443;BME280;25147;52.142;9.960;2023-04-08T02:49:21;101085.88;;;3.52;100.00
39443;BME280;25147;52.142;9.960;2023-04-08T02:51:50;101237.31;;;4.42;100.00
39443;BME280;25147;52.142;9.960;2023-04-08T02:54:17;101094.44;;;3.49;100.00
39443;BME280;25147;52.142;9.960;2023-04-08T02:56:43;100898.75;;;2.40;100.00
39443;BME280;25147;52.142;9.960;2023-04-08T02:59:10;101093.44;;;3.42;100.00
39443;BME280;25147;52.142;9.960;2023-04-08T03:01:37;101165.63;;;3.67;100.00
39443;BME280;25147;52.142;9.960;2023-04-08T03:04:04;101243.31;;;4.41;100.00
39443;BME280;25147;52.142;9.960;2023-04-08T03:06:31;101230.72;;;4.18;100.00
39443;BME280;25147;52.142;9.960;2023-04-08T03:08:59;101270.09;;;4.40;100.00
39443;BME280;25147;52.142;9.960;2023-04-08T03:11:26;101005.06;;;2.89;100.00
39443;BME280;25147;52.142;9.960;2023-04-08T03:13:53;101247.56;;;4.36;100.00
39443;BME280;25147;52.142;9.960;2023-04-08T03:16:20;101249.28;;;4.37;100.00
39443;BME280;25147;52.142;9.960;2023-04-08T03:18:48;101231.69;;;4.22;100.00
39443;BME280;25147;52.142;9.960;2023-04-08T03:21:15;100878.25;;;2.13;100.00
39443;BME280;25147;52.142;9.960;2023-04-08T03:23:42;101276.06;;;4.37;100.00
39443;BME280;25147;52.142;9.960;2023-04-08T03:26:10;101263.09;;;4.37;100.00
39443;BME280;25147;52.142;9.960;2023-04-08T03:28:37;101233.41;;;4.21;100.00
39443;BME280;25147;52.142;9.960;2023-04-08T03:31:04;101193.66;;;3.85;100.00
39443;BME280;25147;52.142;9.960;2023-04-08T03:33:31;101273.47;;;4.37;100.00
39443;BME280;25147;52.142;9.960;2023-04-08T03:35:58;101261.44;;;4.39;100.00
39443;BME280;25147;52.142;9.960;2023-04-08T03:38:25;101177.34;;;3.87;100.00
39443;BME280;25147;52.142;9.960;2023-04-08T03:40:52;101135.38;;;3.66;100.00
39443;BME280;25147;52.142;9.960;2023-04-08T03:43:20;101251.97;;;4.41;100.00
39443;BME280;25147;52.142;9.960;2023-04-08T03:45:47;100946.28;;;2.47;100.00
39443;BME280;25147;52.142;9.960;2023-04-08T03:48:14;101280.50;;;4.41;100.00
39443;BME280;25147;52.142;9.960;2023-04-08T03:50:40;101048.88;;;3.19;100.00
39443;BME280;25147;52.142;9.960;2023-04-08T03:53:07;100828.75;;;1.63;100.00
39443;BME280;25147;52.142;9.960;2023-04-08T03:55:35;101278.66;;;4.37;100.00
39443;BME280;25147;52.142;9.960;2023-04-08T03:58:02;100918.50;;;2.40;100.00
39443;BME280;25147;52.142;9.960;2023-04-08T04:00:31;101270.03;;;4.37;100.00
39443;BME280;25147;52.142;9.960;2023-04-08T04:02:58;101269.97;;;4.35;100.00
39443;BME280;25147;52.142;9.960;2023-04-08T04:05:24;101238.44;;;4.15;100.00
39443;BME280;25147;52.142;9.960;2023-04-08T04:07:51;101125.34;;;3.43;100.00
39443;BME280;25147;52.142;9.960;2023-04-08T04:10:18;101282.94;;;4.34;100.00
39443;BME280;25147;52.142;9.960;2023-04-08T04:12:45;101271.66;;;4.33;100.00
39443;BME280;25147;52.142;9.960;2023-04-08T04:15:13;101303.66;;;4.34;100.00
39443;BME280;25147;52.142;9.960;2023-04-08T04:17:41;101298.44;;;4.32;100.00
39443;BME280;25147;52.142;9.960;2023-04-08T04:20:09;101008.16;;;2.76;100.00
39443;BME280;25147;52.142;9.960;2023-04-08T04:22:36;100790.50;;;1.48;100.00
39443;BME280;25147;52.142;9.960;2023-04-08T04:25:04;101231.22;;;4.02;100.00
39443;BME280;25147;52.142;9.960;2023-04-08T04:27:31;101205.63;;;3.79;100.00
39443;BME280;25147;52.142;9.960;2023-04-08T04:29:59;101183.09;;;3.75;100.00
39443;BME280;25147;52.142;9.960;2023-04-08T04:32:26;101285.38;;;4.29;100.00
39443;BME280;25147;52.142;9.960;2023-04-08T04:34:54;101328.47;;;4.24;100.00
39443;BME280;25147;52.142;9.960;2023-04-08T04:37:21;101190.88;;;3.75;100.00
39443;BME280;25147;52.142;9.960;2023-04-08T04:39:48;101316.59;;;4.32;100.00
39443;BME280;25147;52.142;9.960;2023-04-08T04:42:15;101314.84;;;4.33;100.00
39443;BME280;25147;52.142;9.960;2023-04-08T04:44:42;101262.16;;;3.96;100.00
39443;BME280;25147;52.142;9.960;2023-04-08T04:47:09;101139.72;;;3.30;100.00
39443;BME280;25147;52.142;9.960;2023-04-08T04:49:36;101298.44;;;4.32;100.00
39443;BME280;25147;52.142;9.960;2023-04-08T04:52:06;101223.03;;;3.85;100.00
39443;BME280;25147;52.142;9.960;2023-04-08T04:54:33;101302.81;;;4.35;100.00
39443;BME280;25147;52.142;9.960;2023-04-08T04:57:00;101132.00;;;3.32;100.00
39443;BME280;25147;52.142;9.960;2023-04-08T04:59:26;100896.53;;;1.89;100.00
39443;BME280;25147;52.142;9.960;2023-04-08T05:01:53;101343.41;;;4.34;100.00
39443;BME280;25147;52.142;9.960;2023-04-08T05:04:22;101229.91;;;3.85;100.00
39443;BME280;25147;52.142;9.960;2023-04-08T05:06:49;101158.09;;;3.41;100.00
39443;BME280;25147;52.142;9.960;2023-04-08T05:09:17;100942.41;;;1.98;100.00
39443;BME280;25147;52.142;9.960;2023-04-08T05:11:44;101191.03;;;3.47;100.00
39443;BME280;25147;52.142;9.960;2023-04-08T05:14:11;101276.94;;;4.00;100.00
39443;BME280;25147;52.142;9.960;2023-04-08T05:16:38;101241.22;;;3.88;100.00
39443;BME280;25147;52.142;9.960;2023-04-08T05:19:05;101018.00;;;2.56;100.00
39443;BME280;25147;52.142;9.960;2023-04-08T05:21:32;101155.34;;;3.35;100.00
39443;BME280;25147;52.142;9.960;2023-04-08T05:23:58;101361.59;;;4.36;100.00
39443;BME280;25147;52.142;9.960;2023-04-08T05:26:27;101327.91;;;4.36;100.00
39443;BME280;25147;52.142;9.960;2023-04-08T05:28:54;101261.91;;;3.87;100.00
39443;BME280;25147;52.142;9.960;2023-04-08T05:31:20;100955.88;;;2.18;100.00
39443;BME280;25147;52.142;9.960;2023-04-08T05:33:47;101257.53;;;3.84;100.00
39443;BME280;25147;52.142;9.960;2023-04-08T05:36:14;101339.19;;;4.38;100.00
39443;BME280;25147;52.142;9.960;2023-04-08T05:38:41;101345.28;;;4.40;100.00
39443;BME280;25147;52.142;9.960;2023-04-08T05:41:09;101156.31;;;3.38;100.00
39443;BME280;25147;52.142;9.960;2023-04-08T05:43:37;101373.81;;;4.41;100.00
39443;BME280;25147;52.142;9.960;2023-04-08T05:46:05;101168.56;;;3.46;100.00
39443;BME280;25147;52.142;9.960;2023-04-08T05:48:32;101349.66;;;4.42;100.00
39443;BME280;25147;52.142;9.960;2023-04-08T05:50:59;101249.97;;;3.92;100.00
39443;BME280;25147;52.142;9.960;2023-04-08T05:53:26;101011.91;;;2.54;100.00
39443;BME280;25147;52.142;9.960;2023-04-08T05:55:53;101172.06;;;3.48;100.00
39443;BME280;25147;52.142;9.960;2023-04-08T05:58:20;101264.03;;;4.01;100.00
39443;BME280;25147;52.142;9.960;2023-04-08T06:00:48;101211.69;;;3.80;100.00
39443;BME280;25147;52.142;9.960;2023-04-08T06:03:15;101281.50;;;4.10;100.00
39443;BME280;25147;52.142;9.960;2023-04-08T06:05:42;101280.63;;;4.10;100.00
39443;BME280;25147;52.142;9.960;2023-04-08T06:08:09;101209.75;;;3.71;100.00
39443;BME280;25147;52.142;9.960;2023-04-08T06:10:36;101347.31;;;4.53;100.00
39443;BME280;25147;52.142;9.960;2023-04-08T06:13:03;101395.06;;;4.61;100.00
39443;BME280;25147;52.142;9.960;2023-04-08T06:15:30;101049.53;;;2.76;100.00
39443;BME280;25147;52.142;9.960;2023-04-08T06:17:58;101196.66;;;3.65;100.00
39443;BME280;25147;52.142;9.960;2023-04-08T06:20:25;101176.78;;;3.64;100.00
39443;BME280;25147;52.142;9.960;2023-04-08T06:22:52;101147.63;;;3.36;100.00
39443;BME280;25147;52.142;9.960;2023-04-08T06:25:19;100867.16;;;1.84;100.00
39443;BME280;25147;52.142;9.960;2023-04-08T06:27:46;101164.19;;;3.43;100.00
39443;BME280;25147;52.142;9.960;2023-04-08T06:30:14;101209.72;;;3.70;100.00
39443;BME280;25147;52.142;9.960;2023-04-08T06:32:41;101367.63;;;4.71;100.00
39443;BME280;25147;52.142;9.960;2023-04-08T06:35:09;101109.19;;;3.17;100.00
39443;BME280;25147;52.142;9.960;2023-04-08T06:37:36;101330.94;;;4.54;100.00
39443;BME280;25147;52.142;9.960;2023-04-08T06:40:05;101238.84;;;3.96;100.00
39443;BME280;25147;52.142;9.960;2023-04-08T06:42:31;101112.78;;;3.22;100.00
39443;BME280;25147;52.142;9.960;2023-04-08T06:44:58;101213.31;;;3.75;100.00
39443;BME280;25147;52.142;9.960;2023-04-08T06:47:25;101072.34;;;2.92;100.00
39443;BME280;25147;52.142;9.960;2023-04-08T06:49:53;101424.91;;;4.80;100.00
39443;BME280;25147;52.142;9.960;2023-04-08T06:52:21;101233.72;;;3.64;100.00
39443;BME280;25147;52.142;9.960;2023-04-08T06:54:48;101420.56;;;4.79;100.00
39443;BME280;25147;52.142;9.960;2023-04-08T06:57:15;101232.41;;;3.80;100.00
39443;BME280;25147;52.142;9.960;2023-04-08T06:59:42;101418.97;;;4.85;100.00
39443;BME280;25147;52.142;9.960;2023-04-08T07:02:09;101125.81;;;3.27;100.00
39443;BME280;25147;52.142;9.960;2023-04-08T07:04:36;101404.31;;;4.88;100.00
39443;BME280;25147;52.142;9.960;2023-04-08T07:07:03;101411.22;;;4.88;100.00
39443;BME280;25147;52.142;9.960;2023-04-08T07:09:31;101255.97;;;3.91;100.00
39443;BME280;25147;52.142;9.960;2023-04-08T07:11:58;101380.81;;;4.82;100.00
39443;BME280;25147;52.142;9.960;2023-04-08T07:14:25;101436.44;;;4.93;100.00
39443;BME280;25147;52.142;9.960;2023-04-08T07:16:53;101409.69;;;4.96;100.00
39443;BME280;25147;52.142;9.960;2023-04-08T07:19:21;101159.25;;;3.54;100.00
39443;BME280;25147;52.142;9.960;2023-04-08T07:21:48;101180.22;;;3.63;100.00
39443;BME280;25147;52.142;9.960;2023-04-08T07:24:16;101239.03;;;4.04;100.00
39443;BME280;25147;52.142;9.960;2023-04-08T07:26:50;101219.19;;;3.69;100.00
39443;BME280;25147;52.142;9.960;2023-04-08T07:29:17;101229.34;;;3.96;100.00
39443;BME280;25147;52.142;9.960;2023-04-08T07:31:44;101376.13;;;4.66;100.00
39443;BME280;25147;52.142;9.960;2023-04-08T07:34:11;101292.41;;;4.33;100.00
39443;BME280;25147;52.142;9.960;2023-04-08T07:36:38;101421.06;;;5.02;100.00
39443;BME280;25147;52.142;9.960;2023-04-08T07:39:05;101418.47;;;5.02;100.00
39443;BME280;25147;52.142;9.960;2023-04-08T07:41:32;101463.50;;;5.03;100.00
39443;BME280;25147;52.142;9.960;2023-04-08T07:44:00;101207.41;;;3.82;100.00
39443;BME280;25147;52.142;9.960;2023-04-08T07:46:38;101006.66;;;2.51;100.00
39443;BME280;25147;52.142;9.960;2023-04-08T07:49:05;101270.47;;;4.19;100.00
39443;BME280;25147;52.142;9.960;2023-04-08T07:51:32;101470.50;;;5.07;100.00
39443;BME280;25147;52.142;9.960;2023-04-08T07:53:59;101124.84;;;3.23;100.00
39443;BME280;25147;52.142;9.960;2023-04-08T07:56:25;101005.22;;;2.62;100.00
39443;BME280;25147;52.142;9.960;2023-04-08T07:58:53;101460.22;;;5.12;100.00
39443;BME280;25147;52.142;9.960;2023-04-08T08:01:22;101287.88;;;4.25;100.00
39443;BME280;25147;52.142;9.960;2023-04-08T08:03:50;101260.94;;;4.18;100.00
39443;BME280;25147;52.142;9.960;2023-04-08T08:06:17;101433.53;;;5.19;100.00
39443;BME280;25147;52.142;9.960;2023-04-08T08:08:44;101322.88;;;4.42;100.00
39443;BME280;25147;52.142;9.960;2023-04-08T08:11:11;101139.88;;;3.36;100.00
39443;BME280;25147;52.142;9.960;2023-04-08T08:13:38;101463.00;;;5.21;100.00
39443;BME280;25147;52.142;9.960;2023-04-08T08:16:05;101268.34;;;4.01;100.00
39443;BME280;25147;52.142;9.960;2023-04-08T08:18:37;101106.84;;;3.28;100.00
39443;BME280;25147;52.142;9.960;2023-04-08T08:21:04;101135.00;;;3.49;100.00
39443;BME280;25147;52.142;9.960;2023-04-08T08:23:31;101471.13;;;5.35;100.00
39443;BME280;25147;52.142;9.960;2023-04-08T08:25:59;101336.41;;;4.67;100.00
39443;BME280;25147;52.142;9.960;2023-04-08T08:28:26;101463.47;;;5.41;100.00
39443;BME280;25147;52.142;9.960;2023-04-08T08:30:53;101487.69;;;5.40;100.00
39443;BME280;25147;52.142;9.960;2023-04-08T08:33:21;101465.13;;;5.37;100.00
39443;BME280;25147;52.142;9.960;2023-04-08T08:35:49;101153.91;;;3.46;100.00
39443;BME280;25147;52.142;9.960;2023-04-08T08:38:17;101477.22;;;5.37;100.00
39443;BME280;25147;52.142;9.960;2023-04-08T08:40:44;101473.84;;;5.39;100.00
39443;BME280;25147;52.142;9.960;2023-04-08T08:43:11;101157.69;;;3.59;100.00
39443;BME280;25147;52.142;9.960;2023-04-08T08:45:44;100996.56;;;2.60;100.00
39443;BME280;25147;52.142;9.960;2023-04-08T08:48:13;101153.66;;;3.72;100.00
39443;BME280;25147;52.142;9.960;2023-04-08T08:50:40;101471.56;;;5.55;100.00
39443;BME280;25147;52.142;9.960;2023-04-08T08:53:09;101318.06;;;4.59;100.00
39443;BME280;25147;52.142;9.960;2023-04-08T08:55:39;101501.13;;;5.61;100.00
39443;BME280;25147;52.142;9.960;2023-04-08T08:58:08;101180.78;;;3.88;100.00
39443;BME280;25147;52.142;9.960;2023-04-08T09:00:36;101483.97;;;5.68;100.00
39443;BME280;25147;52.142;9.960;2023-04-08T09:03:16;101526.47;;;5.72;100.00
39443;BME280;25147;52.142;9.960;2023-04-08T09:05:47;101515.28;;;5.76;100.00
39443;BME280;25147;52.142;9.960;2023-04-08T09:08:30;101493.63;;;5.75;100.00
39443;BME280;25147;52.142;9.960;2023-04-08T09:11:15;101500.47;;;5.70;100.00
39443;BME280;25147;52.142;9.960;2023-04-08T09:13:49;101485.72;;;5.69;100.00
39443;BME280;25147;52.142;9.960;2023-04-08T09:16:19;101050.00;;;2.94;100.00
39443;BME280;25147;52.142;9.960;2023-04-08T09:18:47;101090.88;;;3.09;100.00
39443;BME280;25147;52.142;9.960;2023-04-08T09:21:16;101206.94;;;3.97;100.00
39443;BME280;25147;52.142;9.960;2023-04-08T09:23:46;101506.53;;;5.71;100.00
39443;BME280;25147;52.142;9.960;2023-04-08T09:26:15;101347.63;;;4.67;100.00
39443;BME280;25147;52.142;9.960;2023-04-08T09:28:57;101523.97;;;5.76;100.00
39443;BME280;25147;52.142;9.960;2023-04-08T09:31:25;101554.31;;;5.77;100.00
39443;BME280;25147;52.142;9.960;2023-04-08T09:33:54;101362.66;;;4.82;100.00
39443;BME280;25147;52.142;9.960;2023-04-08T09:36:21;101519.69;;;5.78;100.00
39443;BME280;25147;52.142;9.960;2023-04-08T09:38:53;101177.38;;;3.54;100.00
39443;BME280;25147;52.142;9.960;2023-04-08T09:41:34;101041.41;;;2.95;100.00
39443;BME280;25147;52.142;9.960;2023-04-08T09:44:03;101431.22;;;5.30;100.00
39443;BME280;25147;52.142;9.960;2023-04-08T09:46:35;101266.28;;;4.24;100.00
39443;BME280;25147;52.142;9.960;2023-04-08T09:49:10;101218.22;;;4.00;100.00
39443;BME280;25147;52.142;9.960;2023-04-08T09:51:56;100997.47;;;2.62;100.00
39443;BME280;25147;52.142;9.960;2023-04-08T09:54:37;101387.91;;;4.89;100.00
39443;BME280;25147;52.142;9.960;2023-04-08T09:57:13;101067.03;;;3.21;100.00
39443;BME280;25147;52.142;9.960;2023-04-08T09:59:44;101209.91;;;4.14;100.00
39443;BME280;25147;52.142;9.960;2023-04-08T10:02:13;101314.09;;;4.75;100.00
39443;BME280;25147;52.142;9.960;2023-04-08T10:04:49;100978.84;;;2.75;100.00
39443;BME280;25147;52.142;9.960;2023-04-08T10:07:17;101422.72;;;5.38;100.00
39443;BME280;25147;52.142;9.960;2023-04-08T10:09:49;101036.50;;;3.06;100.00
39443;BME280;25147;52.142;9.960;2023-04-08T10:12:17;101372.34;;;4.89;100.00
39443;BME280;25147;52.142;9.960;2023-04-08T10:15:21;101495.69;;;5.92;100.00
39443;BME280;25147;52.142;9.960;2023-04-08T10:17:48;101464.72;;;5.58;100.00
39443;BME280;25147;52.142;9.960;2023-04-08T10:20:42;101292.50;;;4.76;100.00
39443;BME280;25147;52.142;9.960;2023-04-08T10:23:13;101523.91;;;6.13;100.00
39443;BME280;25147;52.142;9.960;2023-04-08T10:25:43;101433.75;;;5.28;100.00
39443;BME280;25147;52.142;9.960;2023-04-08T10:28:33;101536.78;;;6.07;100.00
39443;BME280;25147;52.142;9.960;2023-04-08T10:31:00;101535.00;;;6.06;100.00
39443;BME280;25147;52.142;9.960;2023-04-08T10:33:31;101477.25;;;5.79;100.00
39443;BME280;25147;52.142;9.960;2023-04-08T10:35:59;101438.75;;;5.58;100.00
39443;BME280;25147;52.142;9.960;2023-04-08T10:38:27;101353.94;;;5.18;100.00
39443;BME280;25147;52.142;9.960;2023-04-08T10:40:56;101377.63;;;5.35;100.00
39443;BME280;25147;52.142;9.960;2023-04-08T10:43:24;101378.56;;;5.37;100.00
39443;BME280;25147;52.142;9.960;2023-04-08T10:45:52;101364.06;;;5.48;100.00
39443;BME280;25147;52.142;9.960;2023-04-08T10:48:20;101496.44;;;6.29;100.00
39443;BME280;25147;52.142;9.960;2023-04-08T10:50:53;101501.72;;;6.32;100.00
39443;BME280;25147;52.142;9.960;2023-04-08T10:53:25;101462.22;;;6.06;100.00
39443;BME280;25147;52.142;9.960;2023-04-08T10:55:52;101551.63;;;6.58;100.00
39443;BME280;25147;52.142;9.960;2023-04-08T10:58:21;101580.22;;;6.56;100.00
39443;BME280;25147;52.142;9.960;2023-04-08T11:00:48;101397.34;;;5.68;100.00
39443;BME280;25147;52.142;9.960;2023-04-08T11:03:14;101243.84;;;4.66;100.00
39443;BME280;25147;52.142;9.960;2023-04-08T11:05:41;101524.97;;;6.24;100.00
39443;BME280;25147;52.142;9.960;2023-04-08T11:08:08;101478.28;;;5.88;100.00
39443;BME280;25147;52.142;9.960;2023-04-08T11:10:36;101559.09;;;6.39;100.00
39443;BME280;25147;52.142;9.960;2023-04-08T11:13:06;101545.22;;;6.40;100.00
39443;BME280;25147;52.142;9.960;2023-04-08T11:15:35;101477.41;;;5.87;100.00
39443;BME280;25147;52.142;9.960;2023-04-08T11:18:03;101531.88;;;6.22;100.00
39443;BME280;25147;52.142;9.960;2023-04-08T11:20:31;101565.06;;;6.35;100.00
39443;BME280;25147;52.142;9.960;2023-04-08T11:23:00;101252.06;;;4.45;100.00
39443;BME280;25147;52.142;9.960;2023-04-08T11:25:28;101400.34;;;5.43;100.00
39443;BME280;25147;52.142;9.960;2023-04-08T11:27:55;101548.44;;;6.29;100.00
39443;BME280;25147;52.142;9.960;2023-04-08T11:30:23;101554.56;;;6.29;100.00
39443;BME280;25147;52.142;9.960;2023-04-08T11:32:52;101478.91;;;5.76;100.00
39443;BME280;25147;52.142;9.960;2023-04-08T11:35:20;101496.28;;;5.77;100.00
39443;BME280;25147;52.142;9.960;2023-04-08T11:37:47;101248.66;;;4.47;100.00
39443;BME280;25147;52.142;9.960;2023-04-08T11:40:19;101301.25;;;4.81;100.00
39443;BME280;25147;52.142;9.960;2023-04-08T11:42:48;101218.00;;;4.29;100.00
39443;BME280;25147;52.142;9.960;2023-04-08T11:45:16;101104.34;;;3.67;100.00
39443;BME280;25147;52.142;9.960;2023-04-08T11:47:44;101562.47;;;6.35;100.00
39443;BME280;25147;52.142;9.960;2023-04-08T11:50:21;101386.34;;;5.37;100.00
39443;BME280;25147;52.142;9.960;2023-04-08T11:52:49;101408.09;;;5.42;100.00
39443;BME280;25147;52.142;9.960;2023-04-08T11:55:22;101547.00;;;6.43;100.00
39443;BME280;25147;52.142;9.960;2023-04-08T11:57:49;101380.50;;;5.47;100.00
39443;BME280;25147;52.142;9.960;2023-04-08T12:00:17;101548.66;;;6.38;100.00
39443;BME280;25147;52.142;9.960;2023-04-08T12:02:45;101400.41;;;5.47;100.00
39443;BME280;25147;52.142;9.960;2023-04-08T12:05:13;101569.50;;;6.39;100.00
39443;BME280;25147;52.142;9.960;2023-04-08T12:07:41;101566.84;;;6.38;100.00
39443;BME280;25147;52.142;9.960;2023-04-08T12:10:08;101492.94;;;5.84;100.00
39443;BME280;25147;52.142;9.960;2023-04-08T12:12:36;101560.78;;;6.37;100.00
39443;BME280;25147;52.142;9.960;2023-04-08T12:15:04;101502.59;;;5.90;100.00
39443;BME280;25147;52.142;9.960;2023-04-08T12:17:31;101316.13;;;4.90;100.00
39443;BME280;25147;52.142;9.960;2023-04-08T12:19:58;101409.03;;;5.46;100.00
39443;BME280;25147;52.142;9.960;2023-04-08T12:22:27;101398.66;;;5.46;100.00
39443;BME280;25147;52.142;9.960;2023-04-08T12:24:54;101557.28;;;6.35;100.00
39443;BME280;25147;52.142;9.960;2023-04-08T12:27:21;101442.41;;;5.68;100.00
39443;BME280;25147;52.142;9.960;2023-04-08T12:29:48;101264.44;;;4.58;100.00
39443;BME280;25147;52.142;9.960;2023-04-08T12:32:16;101580.00;;;6.46;100.00
39443;BME280;25147;52.142;9.960;2023-04-08T12:34:43;101563.53;;;6.47;100.00
39443;BME280;25147;52.142;9.960;2023-04-08T12:37:10;101405.47;;;5.40;100.00
39443;BME280;25147;52.142;9.960;2023-04-08T12:39:38;101594.94;;;6.56;100.00
39443;BME280;25147;52.142;9.960;2023-04-08T12:42:05;101443.88;;;5.96;100.00
39443;BME280;25147;52.142;9.960;2023-04-08T12:44:33;101134.75;;;4.14;100.00
39443;BME280;25147;52.142;9.960;2023-04-08T12:47:00;101317.22;;;5.42;100.00
39443;BME280;25147;52.142;9.960;2023-04-08T12:49:27;101385.03;;;6.01;100.00
39443;BME280;25147;52.142;9.960;2023-04-08T12:51:54;101608.00;;;7.06;100.00
39443;BME280;25147;52.142;9.960;2023-04-08T12:54:22;101574.31;;;7.15;100.00
39443;BME280;25147;52.142;9.960;2023-04-08T12:56:50;101590.88;;;7.20;100.00